メインページ
METAR-TAF:

METAR-TAF

空港 :

ハリスバーグ国際空港

ハリスバーグ / Middletown, ペンシルバニア州, アメリカ合衆国

緯度: 40-11-37N, 経度: 076-45-48W, 海抜: 95m

現時点の気象観測

当レポートは19分前の16:56(UTC)に作成
南東の風 4kt
気温 26°C
湿度 58%
気圧 1022 hPa
視程: 16.1km
晴天

METAR: KMDT 261656Z 14004KT 10SM CLR 26/17 A3019 RMK AO2 SLP221 T02610172

時間: 13:15 (17:15 UTC)

予報

当レポートは2時間2分前の15:13(UTC)に作成
予報は26日の 15時(UTC)から 27日の 12時(UTC)まで有効
の風 3kt
視程: 10km
晴天
27日の 0700時(UTC)から
の風 kt
視程: 10km
高度1500ftの曇り

TAF: KMDT 261513Z 2615/2712 17003KT P6SM SKC FM270700 00000KT P6SM OVC015

4,000以上の空港の気象観測と天気予報(METAR報とTAF報)

利用可能な観測所は地図上に黄色い丸と赤い丸で示す。

丸の上にカーソルを重ねると観測所名を参照できる。

次にクリックすると気象観測と天気予報を参照できる。

マップの切り替え:黒色「×」印の緑ボタンをクリックして拡大、「-」印の緑ボタンをクリックして縮小、緑色の三角印をクリックして隣りの地図に切り替え


METAR-TAF: